sensor_id;sensor_type;location;lat;lon;timestamp;P1;durP1;ratioP1;P2;durP2;ratioP2
15039;SDS011;7617;47.366;8.558;2024-03-08T00:01:05;30.00;;;18.43;;
15039;SDS011;7617;47.366;8.558;2024-03-08T00:03:34;29.97;;;18.90;;
15039;SDS011;7617;47.366;8.558;2024-03-08T00:06:02;31.17;;;18.47;;
15039;SDS011;7617;47.366;8.558;2024-03-08T00:08:33;30.83;;;20.03;;
15039;SDS011;7617;47.366;8.558;2024-03-08T00:11:01;31.67;;;18.40;;
15039;SDS011;7617;47.366;8.558;2024-03-08T00:13:30;32.47;;;19.20;;
15039;SDS011;7617;47.366;8.558;2024-03-08T00:15:59;29.50;;;18.13;;
15039;SDS011;7617;47.366;8.558;2024-03-08T00:18:28;28.00;;;17.10;;
15039;SDS011;7617;47.366;8.558;2024-03-08T00:20:57;29.53;;;17.73;;
15039;SDS011;7617;47.366;8.558;2024-03-08T00:23:25;31.40;;;18.77;;
15039;SDS011;7617;47.366;8.558;2024-03-08T00:25:54;31.83;;;18.70;;
15039;SDS011;7617;47.366;8.558;2024-03-08T00:28:23;29.43;;;17.93;;
15039;SDS011;7617;47.366;8.558;2024-03-08T00:30:51;33.00;;;19.60;;
15039;SDS011;7617;47.366;8.558;2024-03-08T00:33:21;28.90;;;18.20;;
15039;SDS011;7617;47.366;8.558;2024-03-08T00:35:49;31.07;;;18.97;;
15039;SDS011;7617;47.366;8.558;2024-03-08T00:38:17;31.60;;;18.23;;
15039;SDS011;7617;47.366;8.558;2024-03-08T00:40:46;31.47;;;19.10;;
15039;SDS011;7617;47.366;8.558;2024-03-08T00:43:14;27.87;;;17.47;;
15039;SDS011;7617;47.366;8.558;2024-03-08T00:45:42;30.77;;;18.00;;
15039;SDS011;7617;47.366;8.558;2024-03-08T00:48:11;34.10;;;19.07;;
15039;SDS011;7617;47.366;8.558;2024-03-08T00:50:40;33.37;;;19.63;;
15039;SDS011;7617;47.366;8.558;2024-03-08T00:53:08;34.20;;;18.87;;
15039;SDS011;7617;47.366;8.558;2024-03-08T00:55:37;33.37;;;18.50;;
15039;SDS011;7617;47.366;8.558;2024-03-08T00:58:06;31.53;;;18.27;;
15039;SDS011;7617;47.366;8.558;2024-03-08T01:00:35;32.00;;;18.97;;
15039;SDS011;7617;47.366;8.558;2024-03-08T01:03:05;27.70;;;17.77;;
15039;SDS011;7617;47.366;8.558;2024-03-08T01:05:34;29.33;;;17.77;;
15039;SDS011;7617;47.366;8.558;2024-03-08T01:08:03;29.63;;;17.17;;
15039;SDS011;7617;47.366;8.558;2024-03-08T01:10:32;28.40;;;17.20;;
15039;SDS011;7617;47.366;8.558;2024-03-08T01:12:59;29.07;;;18.13;;
15039;SDS011;7617;47.366;8.558;2024-03-08T01:15:28;28.50;;;17.67;;
15039;SDS011;7617;47.366;8.558;2024-03-08T01:17:56;31.87;;;18.33;;
15039;SDS011;7617;47.366;8.558;2024-03-08T01:20:25;29.10;;;17.73;;
15039;SDS011;7617;47.366;8.558;2024-03-08T01:22:53;30.33;;;19.00;;
15039;SDS011;7617;47.366;8.558;2024-03-08T01:25:23;29.17;;;17.93;;
15039;SDS011;7617;47.366;8.558;2024-03-08T01:27:51;31.60;;;18.10;;
15039;SDS011;7617;47.366;8.558;2024-03-08T01:30:20;29.20;;;17.50;;
15039;SDS011;7617;47.366;8.558;2024-03-08T01:32:48;33.13;;;18.57;;
15039;SDS011;7617;47.366;8.558;2024-03-08T01:35:16;30.80;;;18.07;;
15039;SDS011;7617;47.366;8.558;2024-03-08T01:37:44;32.20;;;17.80;;
15039;SDS011;7617;47.366;8.558;2024-03-08T01:40:13;30.13;;;17.10;;
15039;SDS011;7617;47.366;8.558;2024-03-08T01:42:42;31.37;;;18.33;;
15039;SDS011;7617;47.366;8.558;2024-03-08T01:45:11;31.93;;;17.83;;
15039;SDS011;7617;47.366;8.558;2024-03-08T01:47:39;32.17;;;17.60;;
15039;SDS011;7617;47.366;8.558;2024-03-08T01:50:08;33.37;;;19.73;;
15039;SDS011;7617;47.366;8.558;2024-03-08T01:52:37;30.93;;;18.37;;
15039;SDS011;7617;47.366;8.558;2024-03-08T01:55:05;31.87;;;18.70;;
15039;SDS011;7617;47.366;8.558;2024-03-08T01:57:34;30.17;;;18.50;;
15039;SDS011;7617;47.366;8.558;2024-03-08T02:00:06;31.87;;;19.07;;
15039;SDS011;7617;47.366;8.558;2024-03-08T02:02:37;30.43;;;17.03;;
15039;SDS011;7617;47.366;8.558;2024-03-08T02:05:05;28.47;;;17.07;;
15039;SDS011;7617;47.366;8.558;2024-03-08T02:07:34;29.13;;;18.00;;
15039;SDS011;7617;47.366;8.558;2024-03-08T02:10:03;33.83;;;18.73;;
15039;SDS011;7617;47.366;8.558;2024-03-08T02:12:33;30.57;;;17.70;;
15039;SDS011;7617;47.366;8.558;2024-03-08T02:15:01;32.57;;;19.07;;
15039;SDS011;7617;47.366;8.558;2024-03-08T02:17:31;31.70;;;18.33;;
15039;SDS011;7617;47.366;8.558;2024-03-08T02:20:00;29.97;;;17.87;;
15039;SDS011;7617;47.366;8.558;2024-03-08T02:22:31;31.53;;;17.70;;
15039;SDS011;7617;47.366;8.558;2024-03-08T02:25:00;32.20;;;18.07;;
15039;SDS011;7617;47.366;8.558;2024-03-08T02:27:30;31.57;;;18.60;;
15039;SDS011;7617;47.366;8.558;2024-03-08T02:29:59;31.60;;;17.60;;
15039;SDS011;7617;47.366;8.558;2024-03-08T02:32:27;30.70;;;18.43;;
15039;SDS011;7617;47.366;8.558;2024-03-08T02:34:56;31.37;;;17.93;;
15039;SDS011;7617;47.366;8.558;2024-03-08T02:37:26;29.33;;;17.87;;
15039;SDS011;7617;47.366;8.558;2024-03-08T02:39:56;30.67;;;17.30;;
15039;SDS011;7617;47.366;8.558;2024-03-08T02:42:24;28.63;;;16.93;;
15039;SDS011;7617;47.366;8.558;2024-03-08T02:44:52;29.67;;;17.20;;
15039;SDS011;7617;47.366;8.558;2024-03-08T02:47:20;28.03;;;17.40;;
15039;SDS011;7617;47.366;8.558;2024-03-08T02:49:51;30.17;;;18.53;;
15039;SDS011;7617;47.366;8.558;2024-03-08T02:52:20;28.67;;;17.37;;
15039;SDS011;7617;47.366;8.558;2024-03-08T02:54:48;32.83;;;19.20;;
15039;SDS011;7617;47.366;8.558;2024-03-08T02:57:18;31.33;;;18.23;;
15039;SDS011;7617;47.366;8.558;2024-03-08T02:59:46;32.53;;;19.47;;
15039;SDS011;7617;47.366;8.558;2024-03-08T03:02:14;31.80;;;18.60;;
15039;SDS011;7617;47.366;8.558;2024-03-08T03:04:42;31.37;;;18.50;;
15039;SDS011;7617;47.366;8.558;2024-03-08T03:07:11;31.40;;;18.43;;
15039;SDS011;7617;47.366;8.558;2024-03-08T03:09:39;33.83;;;18.67;;
15039;SDS011;7617;47.366;8.558;2024-03-08T03:12:07;31.40;;;18.73;;
15039;SDS011;7617;47.366;8.558;2024-03-08T03:14:37;30.87;;;18.37;;
15039;SDS011;7617;47.366;8.558;2024-03-08T03:17:06;29.67;;;18.00;;
15039;SDS011;7617;47.366;8.558;2024-03-08T03:19:36;32.37;;;18.07;;
15039;SDS011;7617;47.366;8.558;2024-03-08T03:22:06;28.80;;;17.17;;
15039;SDS011;7617;47.366;8.558;2024-03-08T03:24:36;30.40;;;18.50;;
15039;SDS011;7617;47.366;8.558;2024-03-08T03:27:05;28.37;;;17.23;;
15039;SDS011;7617;47.366;8.558;2024-03-08T03:29:39;29.60;;;18.10;;
15039;SDS011;7617;47.366;8.558;2024-03-08T03:32:09;27.77;;;17.10;;
15039;SDS011;7617;47.366;8.558;2024-03-08T03:34:38;31.07;;;18.80;;
15039;SDS011;7617;47.366;8.558;2024-03-08T03:37:07;28.63;;;18.13;;
15039;SDS011;7617;47.366;8.558;2024-03-08T03:39:39;27.07;;;16.47;;
15039;SDS011;7617;47.366;8.558;2024-03-08T03:42:15;30.17;;;17.70;;
15039;SDS011;7617;47.366;8.558;2024-03-08T03:44:45;31.30;;;18.20;;
15039;SDS011;7617;47.366;8.558;2024-03-08T03:47:14;25.63;;;16.50;;
15039;SDS011;7617;47.366;8.558;2024-03-08T03:49:43;28.73;;;16.40;;
15039;SDS011;7617;47.366;8.558;2024-03-08T03:52:11;30.50;;;17.43;;
15039;SDS011;7617;47.366;8.558;2024-03-08T03:54:39;26.17;;;16.33;;
15039;SDS011;7617;47.366;8.558;2024-03-08T03:57:07;26.90;;;15.63;;
15039;SDS011;7617;47.366;8.558;2024-03-08T03:59:36;25.47;;;16.50;;
15039;SDS011;7617;47.366;8.558;2024-03-08T04:02:05;26.00;;;16.33;;
15039;SDS011;7617;47.366;8.558;2024-03-08T04:04:34;28.27;;;16.60;;
15039;SDS011;7617;47.366;8.558;2024-03-08T04:07:02;27.50;;;16.17;;
15039;SDS011;7617;47.366;8.558;2024-03-08T04:09:31;25.40;;;15.63;;
15039;SDS011;7617;47.366;8.558;2024-03-08T04:12:00;27.70;;;16.83;;
15039;SDS011;7617;47.366;8.558;2024-03-08T04:14:28;25.97;;;16.27;;
15039;SDS011;7617;47.366;8.558;2024-03-08T04:16:56;25.87;;;16.10;;
15039;SDS011;7617;47.366;8.558;2024-03-08T04:19:26;25.60;;;15.60;;
15039;SDS011;7617;47.366;8.558;2024-03-08T04:21:55;27.07;;;15.77;;
15039;SDS011;7617;47.366;8.558;2024-03-08T04:24:23;26.27;;;16.17;;
15039;SDS011;7617;47.366;8.558;2024-03-08T04:26:51;29.53;;;16.13;;
15039;SDS011;7617;47.366;8.558;2024-03-08T04:29:19;28.97;;;16.50;;
15039;SDS011;7617;47.366;8.558;2024-03-08T04:31:48;27.23;;;16.40;;
15039;SDS011;7617;47.366;8.558;2024-03-08T04:34:20;26.50;;;15.93;;
15039;SDS011;7617;47.366;8.558;2024-03-08T04:36:50;27.70;;;15.33;;
15039;SDS011;7617;47.366;8.558;2024-03-08T04:39:18;28.00;;;15.70;;
15039;SDS011;7617;47.366;8.558;2024-03-08T04:41:48;27.57;;;15.80;;
15039;SDS011;7617;47.366;8.558;2024-03-08T04:44:17;28.17;;;15.47;;
15039;SDS011;7617;47.366;8.558;2024-03-08T04:46:46;27.13;;;16.33;;
15039;SDS011;7617;47.366;8.558;2024-03-08T04:49:14;27.43;;;15.47;;
15039;SDS011;7617;47.366;8.558;2024-03-08T04:51:42;27.03;;;16.30;;
15039;SDS011;7617;47.366;8.558;2024-03-08T04:54:12;27.70;;;15.60;;
15039;SDS011;7617;47.366;8.558;2024-03-08T04:56:41;25.77;;;15.27;;
15039;SDS011;7617;47.366;8.558;2024-03-08T04:59:09;23.43;;;15.27;;
15039;SDS011;7617;47.366;8.558;2024-03-08T05:01:37;26.30;;;15.43;;
15039;SDS011;7617;47.366;8.558;2024-03-08T05:04:05;24.97;;;16.00;;
15039;SDS011;7617;47.366;8.558;2024-03-08T05:06:35;27.03;;;16.70;;
15039;SDS011;7617;47.366;8.558;2024-03-08T05:09:04;27.17;;;16.20;;
15039;SDS011;7617;47.366;8.558;2024-03-08T05:11:42;24.47;;;14.37;;
15039;SDS011;7617;47.366;8.558;2024-03-08T05:14:11;25.40;;;15.07;;
15039;SDS011;7617;47.366;8.558;2024-03-08T05:16:43;25.23;;;15.47;;
15039;SDS011;7617;47.366;8.558;2024-03-08T05:19:17;24.50;;;14.93;;
15039;SDS011;7617;47.366;8.558;2024-03-08T05:21:47;25.87;;;15.97;;
15039;SDS011;7617;47.366;8.558;2024-03-08T05:24:16;24.90;;;15.07;;
15039;SDS011;7617;47.366;8.558;2024-03-08T05:26:46;26.27;;;15.63;;
15039;SDS011;7617;47.366;8.558;2024-03-08T05:29:17;25.87;;;14.53;;
15039;SDS011;7617;47.366;8.558;2024-03-08T05:31:46;26.83;;;16.00;;
15039;SDS011;7617;47.366;8.558;2024-03-08T05:34:15;26.30;;;16.10;;
15039;SDS011;7617;47.366;8.558;2024-03-08T05:36:43;25.00;;;15.97;;
15039;SDS011;7617;47.366;8.558;2024-03-08T05:39:13;25.27;;;16.13;;
15039;SDS011;7617;47.366;8.558;2024-03-08T05:41:41;25.10;;;15.33;;
15039;SDS011;7617;47.366;8.558;2024-03-08T05:44:12;27.00;;;16.50;;
15039;SDS011;7617;47.366;8.558;2024-03-08T05:46:41;25.33;;;15.37;;
15039;SDS011;7617;47.366;8.558;2024-03-08T05:49:09;26.33;;;16.13;;
15039;SDS011;7617;47.366;8.558;2024-03-08T05:51:39;23.83;;;15.23;;
15039;SDS011;7617;47.366;8.558;2024-03-08T05:54:09;22.40;;;14.30;;
15039;SDS011;7617;47.366;8.558;2024-03-08T05:56:42;24.27;;;15.90;;
15039;SDS011;7617;47.366;8.558;2024-03-08T05:59:13;22.77;;;14.87;;
15039;SDS011;7617;47.366;8.558;2024-03-08T06:01:41;26.30;;;16.30;;
15039;SDS011;7617;47.366;8.558;2024-03-08T06:04:10;24.57;;;15.03;;
15039;SDS011;7617;47.366;8.558;2024-03-08T06:06:39;23.53;;;15.37;;
15039;SDS011;7617;47.366;8.558;2024-03-08T06:09:08;25.23;;;15.80;;
15039;SDS011;7617;47.366;8.558;2024-03-08T06:11:42;24.30;;;15.23;;
15039;SDS011;7617;47.366;8.558;2024-03-08T06:14:10;24.57;;;14.93;;
15039;SDS011;7617;47.366;8.558;2024-03-08T06:16:40;23.37;;;15.57;;
15039;SDS011;7617;47.366;8.558;2024-03-08T06:19:10;22.90;;;14.27;;
15039;SDS011;7617;47.366;8.558;2024-03-08T06:21:39;24.80;;;14.27;;
15039;SDS011;7617;47.366;8.558;2024-03-08T06:24:08;23.40;;;14.60;;
15039;SDS011;7617;47.366;8.558;2024-03-08T06:26:36;23.13;;;14.87;;
15039;SDS011;7617;47.366;8.558;2024-03-08T06:29:08;21.73;;;13.93;;
15039;SDS011;7617;47.366;8.558;2024-03-08T06:31:36;24.97;;;14.60;;
15039;SDS011;7617;47.366;8.558;2024-03-08T06:34:07;25.00;;;13.53;;
15039;SDS011;7617;47.366;8.558;2024-03-08T06:36:36;23.13;;;13.10;;
15039;SDS011;7617;47.366;8.558;2024-03-08T06:39:05;22.50;;;14.00;;
15039;SDS011;7617;47.366;8.558;2024-03-08T06:41:37;22.10;;;13.40;;
15039;SDS011;7617;47.366;8.558;2024-03-08T06:44:05;23.83;;;13.23;;
15039;SDS011;7617;47.366;8.558;2024-03-08T06:46:35;22.80;;;13.37;;
15039;SDS011;7617;47.366;8.558;2024-03-08T06:49:04;21.93;;;14.03;;
15039;SDS011;7617;47.366;8.558;2024-03-08T06:51:35;23.90;;;14.03;;
15039;SDS011;7617;47.366;8.558;2024-03-08T06:54:04;23.17;;;13.33;;
15039;SDS011;7617;47.366;8.558;2024-03-08T06:56:36;23.07;;;13.33;;
15039;SDS011;7617;47.366;8.558;2024-03-08T06:59:04;19.83;;;12.90;;
15039;SDS011;7617;47.366;8.558;2024-03-08T07:01:33;21.33;;;13.40;;
15039;SDS011;7617;47.366;8.558;2024-03-08T07:04:03;22.30;;;13.60;;
15039;SDS011;7617;47.366;8.558;2024-03-08T07:06:33;22.90;;;13.10;;
15039;SDS011;7617;47.366;8.558;2024-03-08T07:09:03;20.27;;;13.13;;
15039;SDS011;7617;47.366;8.558;2024-03-08T07:11:31;21.03;;;12.73;;
15039;SDS011;7617;47.366;8.558;2024-03-08T07:14:01;22.80;;;13.67;;
15039;SDS011;7617;47.366;8.558;2024-03-08T07:16:32;22.57;;;14.10;;
15039;SDS011;7617;47.366;8.558;2024-03-08T07:19:01;19.73;;;12.87;;
15039;SDS011;7617;47.366;8.558;2024-03-08T07:21:32;21.80;;;13.73;;
15039;SDS011;7617;47.366;8.558;2024-03-08T07:24:00;18.97;;;13.17;;
15039;SDS011;7617;47.366;8.558;2024-03-08T07:26:47;23.80;;;13.77;;
15039;SDS011;7617;47.366;8.558;2024-03-08T07:29:16;21.70;;;13.43;;
15039;SDS011;7617;47.366;8.558;2024-03-08T07:31:44;19.40;;;12.70;;
15039;SDS011;7617;47.366;8.558;2024-03-08T07:34:22;19.60;;;12.17;;
15039;SDS011;7617;47.366;8.558;2024-03-08T07:36:50;23.00;;;13.60;;
15039;SDS011;7617;47.366;8.558;2024-03-08T07:39:18;20.20;;;12.80;;
15039;SDS011;7617;47.366;8.558;2024-03-08T07:41:49;19.93;;;12.30;;
15039;SDS011;7617;47.366;8.558;2024-03-08T07:44:19;20.10;;;11.33;;
15039;SDS011;7617;47.366;8.558;2024-03-08T07:46:47;19.87;;;12.67;;
15039;SDS011;7617;47.366;8.558;2024-03-08T07:49:15;18.03;;;11.90;;
15039;SDS011;7617;47.366;8.558;2024-03-08T07:51:44;20.37;;;12.80;;
15039;SDS011;7617;47.366;8.558;2024-03-08T07:54:12;18.77;;;11.57;;
15039;SDS011;7617;47.366;8.558;2024-03-08T07:56:41;20.23;;;12.60;;
15039;SDS011;7617;47.366;8.558;2024-03-08T07:59:10;20.77;;;12.40;;
15039;SDS011;7617;47.366;8.558;2024-03-08T08:01:39;18.30;;;11.97;;
15039;SDS011;7617;47.366;8.558;2024-03-08T08:04:08;18.50;;;12.27;;
15039;SDS011;7617;47.366;8.558;2024-03-08T08:06:38;18.57;;;12.23;;
15039;SDS011;7617;47.366;8.558;2024-03-08T08:09:07;18.87;;;11.00;;
15039;SDS011;7617;47.366;8.558;2024-03-08T08:11:40;20.43;;;11.33;;
15039;SDS011;7617;47.366;8.558;2024-03-08T08:14:11;20.93;;;11.90;;
15039;SDS011;7617;47.366;8.558;2024-03-08T08:16:40;18.67;;;11.30;;
15039;SDS011;7617;47.366;8.558;2024-03-08T08:19:09;20.27;;;11.87;;
15039;SDS011;7617;47.366;8.558;2024-03-08T08:21:40;17.67;;;11.23;;
15039;SDS011;7617;47.366;8.558;2024-03-08T08:24:08;18.00;;;11.57;;
15039;SDS011;7617;47.366;8.558;2024-03-08T08:26:37;18.40;;;10.90;;
15039;SDS011;7617;47.366;8.558;2024-03-08T08:29:07;17.20;;;11.30;;
15039;SDS011;7617;47.366;8.558;2024-03-08T08:31:36;18.17;;;11.20;;
15039;SDS011;7617;47.366;8.558;2024-03-08T08:34:04;17.80;;;11.33;;
15039;SDS011;7617;47.366;8.558;2024-03-08T08:36:33;18.60;;;11.67;;
15039;SDS011;7617;47.366;8.558;2024-03-08T08:39:03;17.70;;;11.20;;
15039;SDS011;7617;47.366;8.558;2024-03-08T08:41:32;17.03;;;11.10;;
15039;SDS011;7617;47.366;8.558;2024-03-08T08:44:00;17.57;;;10.17;;
15039;SDS011;7617;47.366;8.558;2024-03-08T08:46:42;16.90;;;10.80;;
15039;SDS011;7617;47.366;8.558;2024-03-08T08:49:11;17.77;;;11.80;;
15039;SDS011;7617;47.366;8.558;2024-03-08T08:51:41;18.17;;;11.23;;
15039;SDS011;7617;47.366;8.558;2024-03-08T08:54:09;18.50;;;11.10;;
15039;SDS011;7617;47.366;8.558;2024-03-08T08:56:41;17.43;;;10.77;;
15039;SDS011;7617;47.366;8.558;2024-03-08T08:59:10;15.53;;;10.43;;
15039;SDS011;7617;47.366;8.558;2024-03-08T09:01:40;13.77;;;9.90;;
15039;SDS011;7617;47.366;8.558;2024-03-08T09:04:09;17.17;;;10.67;;
15039;SDS011;7617;47.366;8.558;2024-03-08T09:06:38;16.90;;;10.93;;
15039;SDS011;7617;47.366;8.558;2024-03-08T09:09:07;19.07;;;11.27;;
15039;SDS011;7617;47.366;8.558;2024-03-08T09:11:37;18.63;;;11.83;;
15039;SDS011;7617;47.366;8.558;2024-03-08T09:14:08;15.80;;;11.20;;
15039;SDS011;7617;47.366;8.558;2024-03-08T09:16:38;15.73;;;10.73;;
15039;SDS011;7617;47.366;8.558;2024-03-08T09:19:06;17.73;;;11.07;;
15039;SDS011;7617;47.366;8.558;2024-03-08T09:21:39;17.97;;;10.90;;
15039;SDS011;7617;47.366;8.558;2024-03-08T09:24:07;16.13;;;10.10;;
15039;SDS011;7617;47.366;8.558;2024-03-08T09:26:36;15.67;;;10.10;;
15039;SDS011;7617;47.366;8.558;2024-03-08T09:29:04;18.47;;;10.70;;
15039;SDS011;7617;47.366;8.558;2024-03-08T09:31:33;15.20;;;10.33;;
15039;SDS011;7617;47.366;8.558;2024-03-08T09:34:01;17.13;;;11.27;;
15039;SDS011;7617;47.366;8.558;2024-03-08T09:36:29;14.80;;;10.33;;
15039;SDS011;7617;47.366;8.558;2024-03-08T09:39:00;15.73;;;10.43;;
15039;SDS011;7617;47.366;8.558;2024-03-08T09:41:29;16.77;;;10.60;;
15039;SDS011;7617;47.366;8.558;2024-03-08T09:43:57;17.30;;;11.30;;
15039;SDS011;7617;47.366;8.558;2024-03-08T09:46:26;16.73;;;10.57;;
15039;SDS011;7617;47.366;8.558;2024-03-08T09:48:55;15.60;;;9.80;;
15039;SDS011;7617;47.366;8.558;2024-03-08T09:51:28;16.73;;;11.00;;
15039;SDS011;7617;47.366;8.558;2024-03-08T09:53:57;17.67;;;11.63;;
15039;SDS011;7617;47.366;8.558;2024-03-08T09:56:30;17.40;;;10.63;;
15039;SDS011;7617;47.366;8.558;2024-03-08T09:58:59;16.80;;;11.53;;
15039;SDS011;7617;47.366;8.558;2024-03-08T10:01:59;17.00;;;10.87;;
15039;SDS011;7617;47.366;8.558;2024-03-08T10:04:29;14.03;;;10.03;;
15039;SDS011;7617;47.366;8.558;2024-03-08T10:06:58;17.90;;;10.83;;
15039;SDS011;7617;47.366;8.558;2024-03-08T10:09:28;16.10;;;11.57;;
15039;SDS011;7617;47.366;8.558;2024-03-08T10:11:58;16.83;;;11.03;;
15039;SDS011;7617;47.366;8.558;2024-03-08T10:14:26;16.77;;;11.53;;
15039;SDS011;7617;47.366;8.558;2024-03-08T10:16:54;18.30;;;11.00;;
15039;SDS011;7617;47.366;8.558;2024-03-08T10:19:26;15.37;;;10.83;;
15039;SDS011;7617;47.366;8.558;2024-03-08T10:21:56;19.03;;;11.13;;
15039;SDS011;7617;47.366;8.558;2024-03-08T10:24:26;17.97;;;11.23;;
15039;SDS011;7617;47.366;8.558;2024-03-08T10:26:55;17.83;;;11.20;;
15039;SDS011;7617;47.366;8.558;2024-03-08T10:29:31;18.10;;;11.77;;
15039;SDS011;7617;47.366;8.558;2024-03-08T10:31:59;16.97;;;11.87;;
15039;SDS011;7617;47.366;8.558;2024-03-08T10:34:32;18.23;;;11.90;;
15039;SDS011;7617;47.366;8.558;2024-03-08T10:37:02;15.83;;;10.83;;
15039;SDS011;7617;47.366;8.558;2024-03-08T10:39:33;16.10;;;9.73;;
15039;SDS011;7617;47.366;8.558;2024-03-08T10:42:08;16.80;;;11.40;;
15039;SDS011;7617;47.366;8.558;2024-03-08T10:44:49;19.87;;;12.93;;
15039;SDS011;7617;47.366;8.558;2024-03-08T10:47:23;18.27;;;12.27;;
15039;SDS011;7617;47.366;8.558;2024-03-08T10:49:59;19.13;;;12.30;;
15039;SDS011;7617;47.366;8.558;2024-03-08T10:52:40;19.57;;;12.10;;
15039;SDS011;7617;47.366;8.558;2024-03-08T10:55:09;18.93;;;11.93;;
15039;SDS011;7617;47.366;8.558;2024-03-08T10:57:41;19.60;;;13.20;;
15039;SDS011;7617;47.366;8.558;2024-03-08T11:00:10;18.23;;;12.47;;
15039;SDS011;7617;47.366;8.558;2024-03-08T11:02:43;17.40;;;11.77;;
15039;SDS011;7617;47.366;8.558;2024-03-08T11:05:11;18.13;;;12.27;;
15039;SDS011;7617;47.366;8.558;2024-03-08T11:07:58;19.60;;;12.03;;
15039;SDS011;7617;47.366;8.558;2024-03-08T11:10:26;19.17;;;12.80;;
15039;SDS011;7617;47.366;8.558;2024-03-08T11:12:57;17.50;;;11.87;;
15039;SDS011;7617;47.366;8.558;2024-03-08T11:15:25;15.93;;;11.13;;
15039;SDS011;7617;47.366;8.558;2024-03-08T11:17:58;16.33;;;11.37;;
15039;SDS011;7617;47.366;8.558;2024-03-08T11:20:27;16.37;;;11.73;;
15039;SDS011;7617;47.366;8.558;2024-03-08T11:23:00;18.27;;;12.47;;
15039;SDS011;7617;47.366;8.558;2024-03-08T11:25:35;15.33;;;11.33;;
15039;SDS011;7617;47.366;8.558;2024-03-08T11:28:12;18.10;;;12.00;;
15039;SDS011;7617;47.366;8.558;2024-03-08T11:30:46;16.27;;;11.03;;
15039;SDS011;7617;47.366;8.558;2024-03-08T11:33:35;16.93;;;11.90;;
15039;SDS011;7617;47.366;8.558;2024-03-08T11:36:07;17.33;;;11.27;;
15039;SDS011;7617;47.366;8.558;2024-03-08T11:38:39;16.70;;;11.10;;
15039;SDS011;7617;47.366;8.558;2024-03-08T11:41:08;15.90;;;11.50;;
15039;SDS011;7617;47.366;8.558;2024-03-08T11:43:45;21.93;;;11.23;;
15039;SDS011;7617;47.366;8.558;2024-03-08T11:46:14;17.23;;;11.73;;
15039;SDS011;7617;47.366;8.558;2024-03-08T11:48:43;17.20;;;12.00;;
15039;SDS011;7617;47.366;8.558;2024-03-08T11:51:15;17.20;;;11.73;;
15039;SDS011;7617;47.366;8.558;2024-03-08T11:53:48;19.17;;;12.33;;
15039;SDS011;7617;47.366;8.558;2024-03-08T11:56:18;18.07;;;11.63;;
15039;SDS011;7617;47.366;8.558;2024-03-08T11:58:53;18.27;;;11.90;;
15039;SDS011;7617;47.366;8.558;2024-03-08T12:01:23;16.20;;;11.70;;
15039;SDS011;7617;47.366;8.558;2024-03-08T12:03:52;17.50;;;11.30;;
15039;SDS011;7617;47.366;8.558;2024-03-08T12:06:21;15.87;;;11.70;;
15039;SDS011;7617;47.366;8.558;2024-03-08T12:08:49;17.70;;;11.47;;
15039;SDS011;7617;47.366;8.558;2024-03-08T12:11:18;15.77;;;11.03;;
15039;SDS011;7617;47.366;8.558;2024-03-08T12:13:49;15.77;;;10.60;;
15039;SDS011;7617;47.366;8.558;2024-03-08T12:16:20;14.67;;;10.90;;
15039;SDS011;7617;47.366;8.558;2024-03-08T12:18:49;20.67;;;12.27;;
15039;SDS011;7617;47.366;8.558;2024-03-08T12:21:20;16.47;;;10.87;;
15039;SDS011;7617;47.366;8.558;2024-03-08T12:24:02;15.40;;;10.97;;
15039;SDS011;7617;47.366;8.558;2024-03-08T12:26:31;15.90;;;11.50;;
15039;SDS011;7617;47.366;8.558;2024-03-08T12:29:16;17.83;;;10.83;;
15039;SDS011;7617;47.366;8.558;2024-03-08T12:31:48;15.87;;;10.77;;
15039;SDS011;7617;47.366;8.558;2024-03-08T12:34:19;18.37;;;11.67;;
15039;SDS011;7617;47.366;8.558;2024-03-08T12:36:47;18.27;;;12.13;;
15039;SDS011;7617;47.366;8.558;2024-03-08T12:39:21;17.77;;;11.73;;
15039;SDS011;7617;47.366;8.558;2024-03-08T12:41:53;17.83;;;12.90;;
15039;SDS011;7617;47.366;8.558;2024-03-08T12:44:23;20.03;;;13.37;;
15039;SDS011;7617;47.366;8.558;2024-03-08T12:46:53;16.40;;;12.00;;
15039;SDS011;7617;47.366;8.558;2024-03-08T12:49:21;18.63;;;12.17;;
15039;SDS011;7617;47.366;8.558;2024-03-08T12:51:49;18.63;;;12.57;;
15039;SDS011;7617;47.366;8.558;2024-03-08T12:54:19;19.17;;;12.10;;
15039;SDS011;7617;47.366;8.558;2024-03-08T12:56:49;17.03;;;12.00;;
15039;SDS011;7617;47.366;8.558;2024-03-08T12:59:20;16.38;;;12.18;;
15039;SDS011;7617;47.366;8.558;2024-03-08T13:01:48;18.13;;;11.82;;
15039;SDS011;7617;47.366;8.558;2024-03-08T13:04:19;16.08;;;11.43;;
15039;SDS011;7617;47.366;8.558;2024-03-08T13:06:47;16.45;;;11.60;;
15039;SDS011;7617;47.366;8.558;2024-03-08T13:09:20;17.25;;;11.30;;
15039;SDS011;7617;47.366;8.558;2024-03-08T13:11:49;15.02;;;11.18;;
15039;SDS011;7617;47.366;8.558;2024-03-08T13:14:18;14.93;;;11.48;;
15039;SDS011;7617;47.366;8.558;2024-03-08T13:16:46;16.30;;;11.60;;
15039;SDS011;7617;47.366;8.558;2024-03-08T13:19:15;15.32;;;12.10;;
15039;SDS011;7617;47.366;8.558;2024-03-08T13:21:49;15.80;;;10.82;;
15039;SDS011;7617;47.366;8.558;2024-03-08T13:24:17;15.88;;;11.15;;
15039;SDS011;7617;47.366;8.558;2024-03-08T13:26:46;16.17;;;11.60;;
15039;SDS011;7617;47.366;8.558;2024-03-08T13:29:16;16.20;;;10.83;;
15039;SDS011;7617;47.366;8.558;2024-03-08T13:31:46;14.03;;;11.03;;
15039;SDS011;7617;47.366;8.558;2024-03-08T13:34:18;15.30;;;10.47;;
15039;SDS011;7617;47.366;8.558;2024-03-08T13:36:55;16.93;;;11.20;;
15039;SDS011;7617;47.366;8.558;2024-03-08T13:39:27;15.90;;;10.97;;
15039;SDS011;7617;47.366;8.558;2024-03-08T13:41:55;15.00;;;11.10;;
15039;SDS011;7617;47.366;8.558;2024-03-08T13:44:23;14.50;;;10.40;;
15039;SDS011;7617;47.366;8.558;2024-03-08T13:46:52;14.50;;;11.20;;
15039;SDS011;7617;47.366;8.558;2024-03-08T13:49:20;15.73;;;11.00;;
15039;SDS011;7617;47.366;8.558;2024-03-08T13:51:49;15.17;;;10.67;;
15039;SDS011;7617;47.366;8.558;2024-03-08T13:54:18;17.90;;;11.53;;
15039;SDS011;7617;47.366;8.558;2024-03-08T13:56:46;16.07;;;11.63;;
15039;SDS011;7617;47.366;8.558;2024-03-08T13:59:16;13.77;;;11.23;;
15039;SDS011;7617;47.366;8.558;2024-03-08T14:01:44;15.50;;;10.70;;
15039;SDS011;7617;47.366;8.558;2024-03-08T14:04:14;14.53;;;10.50;;
15039;SDS011;7617;47.366;8.558;2024-03-08T14:06:43;13.37;;;9.87;;
15039;SDS011;7617;47.366;8.558;2024-03-08T14:09:12;15.57;;;10.17;;
15039;SDS011;7617;47.366;8.558;2024-03-08T14:11:44;15.17;;;10.43;;
15039;SDS011;7617;47.366;8.558;2024-03-08T14:14:12;14.60;;;10.20;;
15039;SDS011;7617;47.366;8.558;2024-03-08T14:16:40;13.23;;;9.60;;
15039;SDS011;7617;47.366;8.558;2024-03-08T14:19:10;13.40;;;9.73;;
15039;SDS011;7617;47.366;8.558;2024-03-08T14:21:40;17.13;;;9.77;;
15039;SDS011;7617;47.366;8.558;2024-03-08T14:24:08;13.90;;;9.97;;
15039;SDS011;7617;47.366;8.558;2024-03-08T14:26:36;14.50;;;10.77;;
15039;SDS011;7617;47.366;8.558;2024-03-08T14:29:06;14.77;;;10.37;;
15039;SDS011;7617;47.366;8.558;2024-03-08T14:31:36;16.20;;;11.50;;
15039;SDS011;7617;47.366;8.558;2024-03-08T14:34:04;14.83;;;10.40;;
15039;SDS011;7617;47.366;8.558;2024-03-08T14:36:34;11.25;;;8.38;;
15039;SDS011;7617;47.366;8.558;2024-03-08T14:39:03;11.13;;;8.83;;
15039;SDS011;7617;47.366;8.558;2024-03-08T14:41:31;14.55;;;10.45;;
15039;SDS011;7617;47.366;8.558;2024-03-08T14:43:59;13.27;;;10.50;;
15039;SDS011;7617;47.366;8.558;2024-03-08T14:46:29;12.85;;;10.05;;
15039;SDS011;7617;47.366;8.558;2024-03-08T14:48:57;12.75;;;10.05;;
15039;SDS011;7617;47.366;8.558;2024-03-08T14:51:26;14.00;;;10.45;;